Time;durP1;ratioP1;P1;durP2;ratioP2;P2;SDS_P1;SDS_P2;PMS_P1;PMS_P2;Temp;Humidity;BMP_temperature;BMP_pressure;BME280_temperature;BME280_humidity;BME280_pressure;Samples;Min_cycle;Max_cycle;Signal;HPM_P1;HPM_P2
2022/05/30 00:02:13;;;;;;;2.60;1.27;;;16.60;83.50;;;;;;5009814;28;20563;-73
2022/05/30 00:04:39;;;;;;;2.40;1.30;;;16.60;83.50;;;;;;5011918;28;20869;-73
2022/05/30 00:07:08;;;;;;;2.67;1.20;;;16.60;83.50;;;;;;5011224;28;20450;-73
2022/05/30 00:09:35;;;;;;;1.50;1.10;;;16.60;83.50;;;;;;5026607;28;20460;-73
2022/05/30 00:12:04;;;;;;;2.93;1.40;;;16.60;83.50;;;;;;5026631;28;20407;-73
2022/05/30 00:14:33;;;;;;;2.50;1.10;;;16.60;83.50;;;;;;5011098;28;20630;-73
2022/05/30 00:17:00;;;;;;;4.60;1.77;;;16.60;83.50;;;;;;5027119;28;20456;-73
2022/05/30 00:19:26;;;;;;;2.80;1.10;;;16.60;83.50;;;;;;5026608;28;20966;-74
2022/05/30 00:21:55;;;;;;;2.10;1.23;;;16.60;83.50;;;;;;5010742;28;20784;-74
2022/05/30 00:24:21;;;;;;;3.40;1.47;;;16.50;83.40;;;;;;4994015;28;20417;-73
2022/05/30 00:26:47;;;;;;;4.30;1.13;;;16.50;83.40;;;;;;5010246;28;20500;-73
2022/05/30 00:29:13;;;;;;;1.87;1.13;;;16.50;83.40;;;;;;5010231;28;20509;-73
2022/05/30 00:31:39;;;;;;;2.53;1.33;;;16.60;83.50;;;;;;5010114;28;20845;-73
2022/05/30 00:34:05;;;;;;;3.50;1.50;;;16.50;83.40;;;;;;5026686;28;20449;-73
2022/05/30 00:36:31;;;;;;;1.70;1.40;;;16.50;83.40;;;;;;5010130;28;20441;-73
2022/05/30 00:39:00;;;;;;;4.27;1.47;;;16.50;83.30;;;;;;5027012;28;20410;-73
2022/05/30 00:41:28;;;;;;;1.73;1.40;;;16.50;83.30;;;;;;5010078;28;20452;-73
2022/05/30 00:43:54;;;;;;;5.93;2.50;;;16.50;83.30;;;;;;5026148;28;20454;-73
2022/05/30 00:46:20;;;;;;;1.90;1.07;;;16.50;83.30;;;;;;5026522;28;20457;-73
2022/05/30 00:48:58;;;;;;;3.20;1.40;;;16.50;83.30;;;;;;5011755;28;20408;-73
2022/05/30 00:51:29;;;;;;;1.43;1.17;;;16.50;83.30;;;;;;5010221;28;21010;-74
2022/05/30 00:53:58;;;;;;;1.80;1.13;;;16.50;83.30;;;;;;5026288;28;20422;-73
2022/05/30 00:56:28;;;;;;;2.90;1.10;;;16.50;83.30;;;;;;5026482;28;20462;-73
2022/05/30 00:59:01;;;;;;;4.47;1.33;;;16.50;83.30;;;;;;5009815;28;20443;-73
2022/05/30 01:01:31;;;;;;;3.13;1.50;;;16.40;83.20;;;;;;4994190;28;20776;-73
2022/05/30 01:06:45;;;;;;;3.13;1.23;;;16.40;83.20;;;;;;5025559;28;20448;-73
2022/05/30 01:09:17;;;;;;;2.83;1.33;;;16.40;83.20;;;;;;5011282;28;20440;-73
2022/05/30 01:12:03;;;;;;;6.37;1.67;;;16.40;83.20;;;;;;5010019;28;20409;-73
2022/05/30 01:14:40;;;;;;;3.33;1.43;;;16.40;83.30;;;;;;5009995;28;20441;-73
2022/05/30 01:17:13;;;;;;;2.03;1.40;;;16.40;83.20;;;;;;5025838;28;20436;-73
2022/05/30 01:19:45;;;;;;;3.50;1.30;;;16.40;83.30;;;;;;5012513;28;20543;-73
2022/05/30 01:22:30;;;;;;;2.20;1.33;;;16.40;84.10;;;;;;5013243;28;20474;-73
2022/05/30 01:25:17;;;;;;;5.13;1.87;;;16.40;83.30;;;;;;5013495;28;20437;-73
2022/05/30 01:28:22;;;;;;;3.00;1.80;;;16.40;83.30;;;;;;5007709;28;20521;-73
2022/05/30 01:30:50;;;;;;;2.70;1.27;;;16.40;83.30;;;;;;5013546;28;20460;-73
2022/05/30 01:33:16;;;;;;;3.57;1.40;;;16.30;83.20;;;;;;5029785;28;20439;-73
2022/05/30 01:35:45;;;;;;;3.00;1.37;;;16.30;83.10;;;;;;5029514;28;20423;-73
2022/05/30 01:38:14;;;;;;;2.73;1.33;;;16.30;83.10;;;;;;4997699;28;20896;-73
2022/05/30 01:40:41;;;;;;;2.50;1.33;;;16.30;83.20;;;;;;5010037;28;20465;-73
2022/05/30 01:43:09;;;;;;;2.43;1.20;;;16.30;83.20;;;;;;5029324;28;20459;-73
2022/05/30 01:45:42;;;;;;;2.57;1.20;;;16.30;83.20;;;;;;5013750;28;20411;-73
2022/05/30 01:48:08;;;;;;;3.20;1.70;;;16.30;83.20;;;;;;5012512;28;20840;-73
2022/05/30 01:50:35;;;;;;;2.27;1.40;;;16.30;83.20;;;;;;5012931;28;20443;-73
2022/05/30 01:53:13;;;;;;;2.83;1.20;;;16.30;83.20;;;;;;4997679;28;20914;-73
2022/05/30 01:55:58;;;;;;;2.70;1.10;;;16.30;83.20;;;;;;5013365;28;20410;-73
2022/05/30 01:58:24;;;;;;;2.93;1.40;;;16.30;83.30;;;;;;5013028;28;20437;-73
2022/05/30 02:01:20;;;;;;;4.00;1.77;;;16.30;83.20;;;;;;5013670;28;20475;-73
2022/05/30 02:03:47;;;;;;;3.63;1.73;;;16.30;83.30;;;;;;5012857;28;20423;-73
2022/05/30 02:06:14;;;;;;;5.30;1.90;;;16.30;83.30;;;;;;5013781;28;20413;-73
2022/05/30 02:08:40;;;;;;;2.90;1.40;;;16.20;83.30;;;;;;5012995;28;20443;-73
2022/05/30 02:11:10;;;;;;;2.70;1.77;;;16.20;83.30;;;;;;5028584;28;20956;-73
2022/05/30 02:13:37;;;;;;;2.10;1.30;;;16.20;83.30;;;;;;5012490;28;20398;-73
2022/05/30 02:19:03;;;;;;;4.37;1.50;;;16.20;83.40;;;;;;4992795;28;20440;-73
2022/05/30 02:21:31;;;;;;;1.93;1.20;;;16.20;83.40;;;;;;5028388;28;20445;-73
2022/05/30 02:23:58;;;;;;;2.17;1.70;;;16.20;83.50;;;;;;5013540;28;20446;-73
2022/05/30 02:26:25;;;;;;;3.10;1.20;;;16.20;83.60;;;;;;5028447;28;20493;-73
2022/05/30 02:28:51;;;;;;;3.87;1.60;;;16.20;83.60;;;;;;5012123;28;20496;-73
2022/05/30 02:31:17;;;;;;;2.40;1.17;;;16.20;83.70;;;;;;5027935;28;20455;-73
2022/05/30 02:36:40;;;;;;;3.63;1.40;;;16.20;83.70;;;;;;5008627;28;20527;-73
2022/05/30 02:39:11;;;;;;;4.13;1.70;;;16.20;83.70;;;;;;4995057;28;20445;-73
2022/05/30 02:41:56;;;;;;;2.63;1.60;;;16.20;83.70;;;;;;5013063;28;20458;-73
2022/05/30 02:44:25;;;;;;;2.87;1.40;;;16.20;83.80;;;;;;5109479;23;20976;-73
2022/05/30 02:46:55;;;;;;;5.80;1.60;;;16.20;83.70;;;;;;4997278;28;20466;-73
2022/05/30 02:49:21;;;;;;;2.53;1.27;;;16.20;83.70;;;;;;5013591;28;20396;-73
2022/05/30 02:51:49;;;;;;;3.00;1.60;;;16.20;83.70;;;;;;4997584;28;20912;-73
2022/05/30 02:54:16;;;;;;;2.60;1.30;;;16.10;83.70;;;;;;5013533;28;20404;-73
2022/05/30 02:57:01;;;;;;;3.77;1.63;;;16.20;83.70;;;;;;5013629;28;20423;-73
2022/05/30 02:59:34;;;;;;;3.93;1.47;;;16.10;83.60;;;;;;4997634;28;20499;-73
2022/05/30 03:02:11;;;;;;;3.23;1.30;;;16.10;83.60;;;;;;5013236;28;20450;-73
2022/05/30 03:04:39;;;;;;;2.30;1.00;;;16.10;83.60;;;;;;5013257;28;20437;-73
2022/05/30 03:07:07;;;;;;;3.00;1.50;;;16.10;83.50;;;;;;5013397;28;20483;-73
2022/05/30 03:09:36;;;;;;;3.00;1.30;;;16.10;83.50;;;;;;5013233;28;20432;-73
2022/05/30 03:12:20;;;;;;;4.53;1.53;;;16.10;83.50;;;;;;5013413;28;20411;-73
2022/05/30 03:14:50;;;;;;;3.67;1.60;;;16.10;83.40;;;;;;5013163;28;20395;-73
2022/05/30 03:17:17;;;;;;;2.60;1.53;;;16.10;83.40;;;;;;5013111;28;20815;-73
2022/05/30 03:19:50;;;;;;;4.93;1.80;;;16.10;83.30;;;;;;5013192;28;20448;-73
2022/05/30 03:22:16;;;;;;;2.70;1.40;;;16.10;83.30;;;;;;4996855;28;20435;-73
2022/05/30 03:25:20;;;;;;;2.40;1.20;;;16.10;83.20;;;;;;4995804;28;20438;-73
2022/05/30 03:27:55;;;;;;;3.20;1.40;;;16.10;83.20;;;;;;4979740;28;20462;-73
2022/05/30 03:30:24;;;;;;;2.47;1.37;;;16.00;83.00;;;;;;4996524;28;20893;-73
2022/05/30 03:32:53;;;;;;;3.10;1.47;;;16.00;83.00;;;;;;4996716;28;20417;-73
2022/05/30 03:35:20;;;;;;;3.10;1.37;;;16.00;83.00;;;;;;5012963;28;20438;-73
2022/05/30 03:37:53;;;;;;;3.87;1.43;;;16.00;82.90;;;;;;5012855;28;20960;-73
2022/05/30 03:40:38;;;;;;;3.80;1.67;;;16.00;82.90;;;;;;5012783;28;20461;-73
2022/05/30 03:43:27;;;;;;;2.40;1.30;;;16.00;82.90;;;;;;5003228;28;20436;-73
2022/05/30 03:45:53;;;;;;;3.03;1.60;;;16.00;82.80;;;;;;4996450;28;20931;-73
2022/05/30 03:48:24;;;;;;;3.77;1.60;;;16.00;82.90;;;;;;5012438;28;20455;-73
2022/05/30 03:50:53;;;;;;;2.20;1.30;;;16.00;82.80;;;;;;4996310;28;20957;-74
2022/05/30 03:53:18;;;;;;;3.63;1.63;;;16.00;82.90;;;;;;4996403;28;20410;-73
2022/05/30 03:55:45;;;;;;;4.20;1.50;;;16.00;82.80;;;;;;5028976;28;20825;-73
2022/05/30 03:58:17;;;;;;;3.73;2.00;;;16.00;82.80;;;;;;4996405;28;20509;-73
2022/05/30 04:00:46;;;;;;;3.83;1.83;;;16.00;82.80;;;;;;5012380;28;20496;-73
2022/05/30 04:03:15;;;;;;;4.37;1.80;;;15.90;82.70;;;;;;5012419;28;20453;-73
2022/05/30 04:05:41;;;;;;;4.20;1.70;;;15.90;82.60;;;;;;4995857;28;20433;-73
2022/05/30 04:08:09;;;;;;;3.90;1.80;;;15.90;82.60;;;;;;5012152;28;20540;-73
2022/05/30 04:10:54;;;;;;;5.47;2.07;;;15.90;82.60;;;;;;5013288;28;20438;-73
2022/05/30 04:13:46;;;;;;;4.60;1.60;;;15.90;82.60;;;;;;5012316;28;20503;-73
2022/05/30 04:16:38;;;;;;;4.60;2.27;;;15.90;82.60;;;;;;4997495;28;20521;-73
2022/05/30 04:19:09;;;;;;;5.93;1.90;;;15.90;82.60;;;;;;5012229;28;20426;-73
2022/05/30 04:21:35;;;;;;;3.80;1.20;;;15.90;82.70;;;;;;5012356;28;20425;-73
2022/05/30 04:24:04;;;;;;;4.67;1.87;;;15.90;82.60;;;;;;5012298;28;20407;-73
2022/05/30 04:26:39;;;;;;;7.40;1.60;;;15.90;82.60;;;;;;4995902;28;20810;-73
2022/05/30 04:29:08;;;;;;;7.77;1.60;;;15.90;82.70;;;;;;5012159;28;20416;-73
2022/05/30 04:31:42;;;;;;;3.53;1.57;;;15.90;82.70;;;;;;5013426;28;20403;-73
2022/05/30 04:34:11;;;;;;;3.33;1.30;;;15.90;82.70;;;;;;5012583;28;20502;-73
2022/05/30 04:36:41;;;;;;;1.63;1.30;;;15.90;82.70;;;;;;4996437;28;20484;-73
2022/05/30 04:39:07;;;;;;;2.63;1.40;;;15.90;82.70;;;;;;4995907;28;20899;-73
2022/05/30 04:41:36;;;;;;;2.90;1.70;;;15.90;82.70;;;;;;5012172;28;20941;-73
2022/05/30 04:44:20;;;;;;;3.73;1.37;;;15.90;82.70;;;;;;5013097;28;20465;-73
2022/05/30 04:47:10;;;;;;;3.00;1.20;;;15.90;82.70;;;;;;5013059;28;20467;-73
2022/05/30 04:49:40;;;;;;;6.37;2.13;;;15.90;82.70;;;;;;4995740;28;20867;-73
2022/05/30 04:52:09;;;;;;;3.40;1.70;;;15.90;82.80;;;;;;5012008;28;20975;-72
2022/05/30 04:54:37;;;;;;;3.47;1.30;;;15.80;82.70;;;;;;5014481;28;20396;-72
2022/05/30 04:57:43;;;;;;;5.40;2.07;;;15.80;82.70;;;;;;5005572;28;20940;-73
2022/05/30 05:00:21;;;;;;;1.60;1.40;;;15.80;82.70;;;;;;4999526;28;20809;-73
2022/05/30 05:02:48;;;;;;;4.07;1.97;;;15.80;82.80;;;;;;4999386;28;20422;-73
2022/05/30 05:05:14;;;;;;;4.07;2.30;;;15.80;82.80;;;;;;4999432;28;20419;-73
2022/05/30 05:08:00;;;;;;;3.43;1.70;;;15.80;82.80;;;;;;4999086;28;20465;-73
2022/05/30 05:10:41;;;;;;;3.50;1.60;;;15.80;82.80;;;;;;4999280;28;20441;-73
2022/05/30 05:13:26;;;;;;;4.83;1.67;;;15.80;82.80;;;;;;5015478;28;20411;-72
2022/05/30 05:16:23;;;;;;;6.70;2.23;;;15.80;82.80;;;;;;5015420;28;20443;-73
2022/05/30 05:18:49;;;;;;;3.50;1.70;;;15.80;82.80;;;;;;4999229;28;20491;-73
2022/05/30 05:21:22;;;;;;;3.60;1.70;;;15.80;82.90;;;;;;4999104;28;20497;-73
2022/05/30 05:23:50;;;;;;;2.40;1.60;;;15.80;82.90;;;;;;4999376;28;20441;-73
2022/05/30 05:26:18;;;;;;;3.17;1.53;;;15.80;82.90;;;;;;5031586;28;20399;-73
2022/05/30 05:29:04;;;;;;;3.33;1.50;;;15.80;82.90;;;;;;5015094;28;20474;-73
2022/05/30 05:31:34;;;;;;;2.90;1.63;;;15.80;82.90;;;;;;5031594;28;20397;-73
2022/05/30 05:34:06;;;;;;;3.27;1.60;;;15.80;82.80;;;;;;4998755;28;20490;-72
2022/05/30 05:36:38;;;;;;;7.13;1.77;;;15.80;82.90;;;;;;4998670;28;20402;-73
2022/05/30 05:39:04;;;;;;;3.27;1.87;;;15.80;82.90;;;;;;5014908;28;20789;-73
2022/05/30 05:41:43;;;;;;;3.43;1.53;;;15.80;82.90;;;;;;4998752;28;20444;-73
2022/05/30 05:44:14;;;;;;;3.43;1.60;;;15.80;82.80;;;;;;4998849;28;20443;-73
2022/05/30 05:46:43;;;;;;;3.40;1.63;;;15.80;82.90;;;;;;5014894;28;20530;-73
2022/05/30 05:49:10;;;;;;;4.60;2.30;;;15.80;82.90;;;;;;5014674;28;20403;-73
2022/05/30 05:51:40;;;;;;;3.57;1.60;;;15.80;82.90;;;;;;4999075;28;20782;-73
2022/05/30 05:54:14;;;;;;;2.10;1.70;;;15.80;82.90;;;;;;5014679;28;20407;-72
2022/05/30 05:56:39;;;;;;;4.33;1.70;;;15.80;82.90;;;;;;5014695;28;20827;-73
2022/05/30 05:59:15;;;;;;;5.83;2.00;;;15.80;82.80;;;;;;5030881;28;20404;-73
2022/05/30 06:01:44;;;;;;;2.50;1.40;;;15.80;82.90;;;;;;4998389;28;20421;-73
2022/05/30 06:04:12;;;;;;;3.03;1.40;;;15.80;82.90;;;;;;4997385;28;20424;-73
2022/05/30 06:07:01;;;;;;;1.90;1.20;;;15.80;82.90;;;;;;5015091;28;20506;-73
2022/05/30 06:09:34;;;;;;;5.20;1.43;;;15.80;82.90;;;;;;5015385;28;20487;-72
2022/05/30 06:12:23;;;;;;;4.87;1.90;;;15.80;82.90;;;;;;4994854;28;20434;-72
2022/05/30 06:14:49;;;;;;;4.57;1.50;;;15.80;82.90;;;;;;5011133;28;20478;-72
2022/05/30 06:17:17;;;;;;;2.27;1.20;;;15.80;82.90;;;;;;4994253;28;20429;-72
2022/05/30 06:19:48;;;;;;;5.63;1.40;;;15.70;82.80;;;;;;4993095;28;20441;-70
2022/05/30 06:22:14;;;;;;;3.00;1.70;;;15.80;82.90;;;;;;4993196;28;20422;-71
2022/05/30 06:24:40;;;;;;;4.17;1.90;;;15.80;82.80;;;;;;5010767;28;20828;-72
2022/05/30 06:27:10;;;;;;;3.77;1.77;;;15.80;82.80;;;;;;4995233;28;20466;-72
2022/05/30 06:29:59;;;;;;;6.33;1.40;;;15.80;82.80;;;;;;4976260;28;20526;-73
2022/05/30 06:32:26;;;;;;;2.60;1.70;;;15.80;82.80;;;;;;4994213;28;20773;-72
2022/05/30 06:35:12;;;;;;;3.10;1.50;;;15.80;82.70;;;;;;4995053;28;20425;-73
2022/05/30 06:37:42;;;;;;;3.50;1.60;;;15.80;82.80;;;;;;4994306;28;20401;-73
2022/05/30 06:40:10;;;;;;;4.73;1.50;;;15.80;82.70;;;;;;4994174;28;20464;-73
2022/05/30 06:42:45;;;;;;;4.90;1.50;;;15.80;82.80;;;;;;4994018;28;20411;-73
2022/05/30 06:45:47;;;;;;;5.63;1.77;;;15.80;82.70;;;;;;4998178;28;20463;-73
2022/05/30 06:48:35;;;;;;;2.90;1.40;;;15.80;82.60;;;;;;5010194;28;20470;-73
2022/05/30 06:51:33;;;;;;;2.60;1.67;;;15.70;82.40;;;;;;5010533;28;20969;-73
2022/05/30 06:54:00;;;;;;;2.93;1.30;;;15.70;82.50;;;;;;4994156;28;20471;-73
2022/05/30 06:56:29;;;;;;;7.00;2.27;;;15.80;82.60;;;;;;4994022;28;20403;-73
2022/05/30 06:58:55;;;;;;;2.70;1.47;;;15.70;82.50;;;;;;4993611;28;20925;-73
2022/05/30 07:01:30;;;;;;;3.40;1.57;;;15.80;82.60;;;;;;4993942;28;20452;-73
2022/05/30 07:04:20;;;;;;;5.47;1.63;;;15.80;82.50;;;;;;4979791;28;20472;-72
2022/05/30 07:07:07;;;;;;;2.17;1.40;;;15.80;82.50;;;;;;5010045;28;20452;-73
2022/05/30 07:10:00;;;;;;;3.40;2.03;;;15.80;82.50;;;;;;4993054;28;20437;-72
2022/05/30 07:12:50;;;;;;;4.90;1.70;;;15.70;82.50;;;;;;4986581;28;20468;-73
2022/05/30 07:15:17;;;;;;;6.77;2.20;;;15.80;82.70;;;;;;4992407;28;20914;-73
2022/05/30 07:17:45;;;;;;;4.57;1.93;;;15.80;82.70;;;;;;4992094;28;20531;-72
2022/05/30 07:20:11;;;;;;;4.50;1.97;;;15.80;82.70;;;;;;4976196;28;20441;-72
2022/05/30 07:23:01;;;;;;;4.00;2.07;;;15.80;82.70;;;;;;5008720;28;20427;-72
2022/05/30 07:25:47;;;;;;;3.80;1.97;;;15.80;82.70;;;;;;4992567;28;20505;-72
2022/05/30 07:28:39;;;;;;;4.00;2.07;;;15.80;82.70;;;;;;5009737;28;20429;-73
2022/05/30 07:31:33;;;;;;;5.70;2.63;;;15.80;82.60;;;;;;4993262;28;20417;-73
2022/05/30 07:34:20;;;;;;;5.77;2.53;;;15.80;82.60;;;;;;4993412;28;20503;-74
2022/05/30 07:37:06;;;;;;;9.00;3.43;;;15.80;82.60;;;;;;5007848;28;20408;-73
2022/05/30 07:39:51;;;;;;;8.03;3.40;;;15.80;82.60;;;;;;4992585;28;21228;-73
2022/05/30 07:42:38;;;;;;;5.70;2.90;;;15.80;82.60;;;;;;4992717;28;20432;-73
2022/05/30 07:45:30;;;;;;;5.20;2.63;;;15.80;82.60;;;;;;4964230;28;20448;-73
2022/05/30 07:48:16;;;;;;;8.40;3.63;;;15.80;82.50;;;;;;4976688;28;20534;-73
2022/05/30 07:50:56;;;;;;;8.00;3.63;;;15.80;82.50;;;;;;5009149;28;20557;-73
2022/05/30 07:53:35;;;;;;;5.30;3.70;;;15.80;82.40;;;;;;4993180;28;20430;-73
2022/05/30 07:56:15;;;;;;;7.30;3.67;;;15.80;82.40;;;;;;4994057;28;20506;-73
2022/05/30 07:58:47;;;;;;;5.03;3.40;;;15.80;82.30;;;;;;4977242;28;20401;-73
2022/05/30 08:01:19;;;;;;;7.67;3.50;;;15.80;82.30;;;;;;4992884;28;20584;-73
2022/05/30 08:03:55;;;;;;;6.97;3.53;;;15.80;82.30;;;;;;4977199;28;20411;-73
2022/05/30 08:06:41;;;;;;;6.63;3.70;;;15.80;82.20;;;;;;4992853;28;20841;-73
2022/05/30 08:09:16;;;;;;;6.27;3.40;;;15.80;82.20;;;;;;5009118;28;20855;-73
2022/05/30 08:12:05;;;;;;;6.50;3.50;;;15.80;82.20;;;;;;4992943;28;20436;-74
2022/05/30 08:14:49;;;;;;;5.70;3.20;;;15.80;82.20;;;;;;5009154;28;20443;-73
2022/05/30 08:17:15;;;;;;;8.50;3.47;;;15.80;82.20;;;;;;4992717;28;20408;-73
2022/05/30 08:19:44;;;;;;;7.50;3.70;;;15.80;82.20;;;;;;4992459;28;20819;-73
2022/05/30 08:22:16;;;;;;;5.40;4.10;;;15.80;82.20;;;;;;4992593;28;20441;-73
2022/05/30 08:24:52;;;;;;;7.40;3.80;;;15.80;82.20;;;;;;4992913;28;20404;-73
2022/05/30 08:27:19;;;;;;;5.87;3.80;;;15.90;82.20;;;;;;4992452;28;20494;-73
2022/05/30 08:29:51;;;;;;;6.60;4.00;;;15.90;82.20;;;;;;4964553;28;20456;-73
2022/05/30 08:32:18;;;;;;;7.93;4.50;;;15.90;82.20;;;;;;4980522;28;20793;-73
2022/05/30 08:35:19;;;;;;;8.00;4.47;;;15.90;82.20;;;;;;4997843;28;20860;-73
2022/05/30 08:37:50;;;;;;;6.77;4.10;;;15.90;82.10;;;;;;4996392;28;20403;-73
2022/05/30 08:43:21;;;;;;;8.60;4.37;;;15.90;82.00;;;;;;4995540;28;20418;-73
2022/05/30 08:46:09;;;;;;;8.00;4.53;;;15.90;82.00;;;;;;4996213;28;20455;-73
2022/05/30 08:48:47;;;;;;;6.70;4.80;;;15.90;82.00;;;;;;4980828;28;20772;-74
2022/05/30 08:51:49;;;;;;;9.30;4.40;;;15.90;81.90;;;;;;4996161;28;20428;-73
2022/05/30 08:54:36;;;;;;;5.33;4.37;;;15.90;81.90;;;;;;4989317;28;20421;-74
2022/05/30 08:57:52;;;;;;;13.23;4.33;;;15.90;81.80;;;;;;4996310;28;20421;-73
2022/05/30 09:00:38;;;;;;;7.57;3.80;;;16.00;81.70;;;;;;4967017;28;20951;-73
2022/05/30 09:03:30;;;;;;;5.40;4.50;;;16.00;81.60;;;;;;5011977;28;20436;-71
2022/05/30 09:06:14;;;;;;;7.63;4.50;;;16.00;81.50;;;;;;4994190;28;21100;-69
2022/05/30 09:08:50;;;;;;;6.00;4.40;;;16.00;81.50;;;;;;4996851;28;20970;-73
2022/05/30 09:11:43;;;;;;;5.37;4.43;;;16.00;81.40;;;;;;5013653;28;20432;-73
2022/05/30 09:14:21;;;;;;;10.43;5.53;;;16.10;81.30;;;;;;5014390;28;20408;-73
2022/05/30 09:16:56;;;;;;;10.33;6.10;;;16.10;81.10;;;;;;4997804;28;20420;-73
2022/05/30 09:19:24;;;;;;;8.50;5.70;;;16.10;81.10;;;;;;4998114;28;20457;-74
2022/05/30 09:22:01;;;;;;;9.50;6.27;;;16.10;81.00;;;;;;5015492;28;20436;-72
2022/05/30 09:24:34;;;;;;;10.30;6.00;;;16.20;80.90;;;;;;4995852;28;20777;-74
2022/05/30 09:27:02;;;;;;;8.60;5.77;;;16.20;80.80;;;;;;4979506;28;20963;-74
2022/05/30 09:29:54;;;;;;;10.73;5.77;;;16.20;80.60;;;;;;4979662;28;20436;-73
2022/05/30 09:33:07;;;;;;;10.07;5.20;;;16.20;80.40;;;;;;4996147;28;20987;-74
2022/05/30 09:36:09;;;;;;;7.17;5.00;;;16.30;80.30;;;;;;4996439;28;20399;-73
2022/05/30 09:39:04;;;;;;;8.07;5.67;;;16.30;80.20;;;;;;4996084;28;20790;-74
2022/05/30 09:41:40;;;;;;;7.13;5.10;;;16.30;80.30;;;;;;4995348;28;20422;-74
2022/05/30 09:44:17;;;;;;;6.73;4.90;;;16.30;80.20;;;;;;4979338;28;20803;-74
2022/05/30 09:46:52;;;;;;;8.20;4.40;;;16.30;80.10;;;;;;4979470;28;20544;-73
2022/05/30 09:50:12;;;;;;;7.00;4.97;;;16.40;80.10;;;;;;4995769;28;20980;-74
2022/05/30 09:52:40;;;;;;;7.50;4.63;;;16.40;80.10;;;;;;4995068;28;20462;-73
2022/05/30 09:55:24;;;;;;;5.17;3.80;;;16.40;80.10;;;;;;4995120;28;20407;-74
2022/05/30 09:57:54;;;;;;;7.87;4.57;;;16.40;79.90;;;;;;4995116;28;20407;-74
2022/05/30 10:00:38;;;;;;;6.43;4.00;;;16.40;79.80;;;;;;4995063;28;20457;-73
2022/05/30 10:03:09;;;;;;;8.77;3.67;;;16.40;79.60;;;;;;4978835;28;20411;-73
2022/05/30 10:05:42;;;;;;;6.23;3.63;;;16.50;79.60;;;;;;4978637;28;20523;-74
2022/05/30 10:08:30;;;;;;;5.33;3.47;;;16.50;79.40;;;;;;4994847;28;20819;-74
2022/05/30 10:11:06;;;;;;;10.53;4.40;;;16.50;79.30;;;;;;4994735;28;20438;-74
2022/05/30 10:13:42;;;;;;;21.60;3.00;;;16.50;79.20;;;;;;4994842;28;20428;-73
2022/05/30 10:16:40;;;;;;;39.57;5.30;;;16.50;78.80;;;;;;4994933;28;20429;-71
2022/05/30 10:19:09;;;;;;;19.67;5.50;;;16.50;77.20;;;;;;5019560;28;20511;-73
2022/05/30 10:28:39;;;;;;;14.80;3.27;;;16.50;77.10;;;;;;5034856;28;20514;-74
2022/05/30 10:31:26;;;;;;;17.43;2.50;;;16.60;77.20;;;;;;5016837;28;20934;-75
2022/05/30 10:34:06;;;;;;;10.87;2.97;;;16.60;76.80;;;;;;4997827;28;20513;-73
2022/05/30 10:36:48;;;;;;;9.83;2.80;;;16.60;76.70;;;;;;5013923;28;20459;-74
2022/05/30 10:39:33;;;;;;;4.47;1.70;;;16.60;76.70;;;;;;5013890;28;20425;-76
2022/05/30 10:42:10;;;;;;;6.60;2.20;;;16.70;76.80;;;;;;5014013;28;20456;-76
2022/05/30 10:44:47;;;;;;;5.40;2.17;;;16.80;76.60;;;;;;5013955;28;20442;-74
2022/05/30 10:47:38;;;;;;;3.00;1.90;;;16.80;76.50;;;;;;5013801;28;20475;-74
2022/05/30 10:50:20;;;;;;;14.93;2.67;;;16.80;76.10;;;;;;4997570;28;20922;-74
2022/05/30 10:53:03;;;;;;;8.67;2.00;;;16.90;76.10;;;;;;5013628;28;20438;-74
2022/05/30 10:56:23;;;;;;;2.63;1.50;;;16.90;75.90;;;;;;5030559;28;20429;-74
2022/05/30 10:59:05;;;;;;;6.20;1.67;;;17.00;76.00;;;;;;5083845;23;20993;-73
2022/05/30 11:01:41;;;;;;;4.80;1.67;;;17.00;76.10;;;;;;4995042;28;20891;-71
2022/05/30 11:04:23;;;;;;;6.17;2.00;;;17.10;76.20;;;;;;5007789;28;20410;-71
2022/05/30 11:06:57;;;;;;;9.80;1.50;;;17.10;76.10;;;;;;5011174;28;20464;-72
2022/05/30 11:09:44;;;;;;;3.20;1.80;;;17.10;76.10;;;;;;4996684;28;20523;-73
2022/05/30 11:12:19;;;;;;;3.47;1.37;;;17.10;76.10;;;;;;5016089;28;21159;-73
2022/05/30 11:14:53;;;;;;;2.33;1.40;;;17.10;76.00;;;;;;5011216;28;20788;-73
2022/05/30 11:17:49;;;;;;;3.00;1.53;;;17.20;76.10;;;;;;5009656;28;20450;-73
2022/05/30 11:20:49;;;;;;;3.07;1.27;;;17.20;76.00;;;;;;4991038;28;20466;-73
2022/05/30 11:23:15;;;;;;;7.77;1.77;;;17.20;76.00;;;;;;5010945;28;20457;-72
2022/05/30 11:26:04;;;;;;;4.03;1.57;;;17.30;75.90;;;;;;5011343;28;20429;-72
2022/05/30 11:29:06;;;;;;;1.60;1.30;;;17.20;75.70;;;;;;4994499;28;20902;-72
2022/05/30 11:31:32;;;;;;;2.13;1.40;;;17.20;75.60;;;;;;4994902;28;20491;-72
2022/05/30 11:34:10;;;;;;;3.80;1.27;;;17.20;75.50;;;;;;5011659;28;20543;-72
2022/05/30 11:36:38;;;;;;;1.30;1.20;;;17.30;75.70;;;;;;5011224;28;20209;-72
2022/05/30 11:39:33;;;;;;;6.43;1.47;;;17.30;75.70;;;;;;5010877;28;20432;-72
2022/05/30 11:42:09;;;;;;;3.13;1.40;;;17.30;75.60;;;;;;5012457;28;20510;-72
2022/05/30 11:44:48;;;;;;;2.07;1.30;;;17.30;75.50;;;;;;5012599;28;20396;-72
2022/05/30 11:47:23;;;;;;;4.03;1.30;;;17.30;75.50;;;;;;4975362;28;20514;-72
2022/05/30 11:50:23;;;;;;;2.53;1.47;;;17.30;75.60;;;;;;5006969;28;20515;-72
2022/05/30 11:53:12;;;;;;;4.80;1.30;;;17.40;75.70;;;;;;5007931;28;20436;-72
2022/05/30 11:56:07;;;;;;;5.33;1.77;;;17.40;75.40;;;;;;4994781;28;20442;-72
2022/05/30 11:59:06;;;;;;;2.93;1.37;;;17.40;75.30;;;;;;5010470;28;20451;-72
2022/05/30 12:01:38;;;;;;;3.13;1.57;;;17.40;75.10;;;;;;4978472;28;20473;-72
2022/05/30 12:04:45;;;;;;;5.13;1.77;;;17.40;74.90;;;;;;5012185;28;20423;-72
2022/05/30 12:07:32;;;;;;;4.60;1.57;;;17.40;74.70;;;;;;4978513;28;20461;-72
2022/05/30 12:10:52;;;;;;;3.83;1.57;;;17.40;74.30;;;;;;4987977;28;20460;-73
2022/05/30 12:13:44;;;;;;;2.70;1.60;;;17.50;74.60;;;;;;4935119;29;20528;-72
2022/05/30 12:16:35;;;;;;;1.70;1.10;;;17.50;74.80;;;;;;4933983;29;20509;-73
2022/05/30 12:24:51;;;;;;;4.03;1.17;;;17.60;74.60;;;;;;5005212;28;20536;-71
2022/05/30 12:27:38;;;;;;;4.13;1.73;;;17.60;74.20;;;;;;5010264;28;20461;-71
2022/05/30 12:30:36;;;;;;;2.40;1.60;;;17.70;74.30;;;;;;5010084;28;20553;-71
2022/05/30 12:33:33;;;;;;;1.80;1.20;;;17.70;74.40;;;;;;5004022;28;20491;-71
2022/05/30 12:36:08;;;;;;;3.00;1.93;;;17.80;74.60;;;;;;4991366;28;20417;-71
2022/05/30 12:38:53;;;;;;;3.00;1.40;;;17.80;74.50;;;;;;4998514;28;20435;-71
2022/05/30 12:41:56;;;;;;;3.03;1.80;;;17.80;74.50;;;;;;5011545;28;20474;-71
2022/05/30 12:44:44;;;;;;;1.67;1.17;;;17.80;74.30;;;;;;5011559;28;20963;-71
2022/05/30 12:47:19;;;;;;;3.50;1.40;;;17.90;74.30;;;;;;4971989;28;20905;-71
2022/05/30 12:49:49;;;;;;;1.93;1.33;;;17.90;74.20;;;;;;5010195;28;20461;-71
2022/05/30 12:52:18;;;;;;;1.80;1.47;;;17.90;74.20;;;;;;4994163;28;20439;-71
2022/05/30 12:55:10;;;;;;;2.70;1.30;;;17.90;73.80;;;;;;5010287;28;20424;-71
2022/05/30 12:57:40;;;;;;;4.93;1.40;;;17.90;74.00;;;;;;5011441;28;20423;-71
2022/05/30 13:00:15;;;;;;;2.40;1.57;;;18.00;74.30;;;;;;4989497;28;20534;-71
2022/05/30 13:02:44;;;;;;;3.63;1.43;;;18.00;74.00;;;;;;5003886;28;20440;-71
2022/05/30 13:05:24;;;;;;;1.17;1.03;;;18.00;73.90;;;;;;5009199;28;20439;-71
2022/05/30 13:07:50;;;;;;;3.63;1.30;;;18.00;73.80;;;;;;5008554;28;20558;-71
2022/05/30 13:10:18;;;;;;;4.20;1.60;;;18.00;73.60;;;;;;5009336;28;20466;-71
2022/05/30 13:12:53;;;;;;;3.83;1.33;;;18.00;73.50;;;;;;4993064;28;20469;-71
2022/05/30 13:15:39;;;;;;;3.30;1.50;;;18.10;73.50;;;;;;5008624;28;20401;-71
2022/05/30 13:18:18;;;;;;;2.17;1.27;;;18.10;73.30;;;;;;5006137;28;20476;-71
2022/05/30 13:20:51;;;;;;;3.60;1.40;;;18.10;73.00;;;;;;4997202;28;20549;-71
2022/05/30 13:23:31;;;;;;;2.17;1.30;;;18.10;73.00;;;;;;4994310;28;20843;-71
2022/05/30 13:25:59;;;;;;;3.10;1.47;;;18.10;73.00;;;;;;4993997;28;20451;-71
2022/05/30 13:28:33;;;;;;;1.87;1.17;;;18.10;72.80;;;;;;5000151;28;20465;-71
2022/05/30 13:31:07;;;;;;;2.43;1.50;;;18.10;73.60;;;;;;5013969;28;20940;-70
2022/05/30 13:33:49;;;;;;;5.07;1.27;;;18.10;72.70;;;;;;5027389;28;20429;-71
2022/05/30 13:36:36;;;;;;;1.70;1.50;;;18.20;72.70;;;;;;5014024;28;20393;-71
2022/05/30 13:39:03;;;;;;;3.43;1.53;;;18.20;72.80;;;;;;4980547;28;20435;-71
2022/05/30 13:41:39;;;;;;;3.10;1.67;;;18.20;73.00;;;;;;4997315;28;20835;-71
2022/05/30 13:44:17;;;;;;;3.50;1.03;;;18.20;73.10;;;;;;5013216;28;20466;-72
2022/05/30 13:46:50;;;;;;;2.17;1.20;;;18.20;73.10;;;;;;5009982;28;20756;-71
2022/05/30 13:49:42;;;;;;;1.87;1.40;;;18.20;73.00;;;;;;5013194;28;20463;-71
2022/05/30 13:52:21;;;;;;;3.37;1.40;;;18.20;73.00;;;;;;5009919;28;20440;-71
2022/05/30 13:55:08;;;;;;;3.63;1.43;;;18.20;72.90;;;;;;4993905;28;20470;-71
2022/05/30 13:57:35;;;;;;;1.80;1.60;;;18.20;72.90;;;;;;4993470;28;20435;-71
2022/05/30 14:00:16;;;;;;;4.53;1.20;;;18.20;72.70;;;;;;5013052;28;20525;-71
2022/05/30 14:02:45;;;;;;;3.57;1.33;;;18.30;72.60;;;;;;5013160;28;20447;-71